createdAt,value
2019-03-13T00:00:34.166Z,86.10
2019-03-13T00:01:34.026Z,86.62
2019-03-13T00:02:34.086Z,85.58
2019-03-13T00:03:34.003Z,86.10
2019-03-13T00:04:34.110Z,85.86
2019-03-13T00:05:33.977Z,86.10
2019-03-13T00:06:34.085Z,87.55
2019-03-13T00:07:33.951Z,86.21
2019-03-13T00:08:34.004Z,85.69
2019-03-13T00:09:33.954Z,85.79
2019-03-13T00:10:34.038Z,85.58
2019-03-13T00:11:33.977Z,85.69
2019-03-13T00:12:33.970Z,85.27
2019-03-13T00:13:33.911Z,85.27
2019-03-13T00:14:33.963Z,84.86
2019-03-13T00:15:33.862Z,84.75
2019-03-13T00:16:33.953Z,84.75
2019-03-13T00:17:33.865Z,84.75
2019-03-13T00:18:33.882Z,84.75
2019-03-13T00:19:33.858Z,85.06
2019-03-13T00:20:33.885Z,85.79
2019-03-13T00:21:33.794Z,85.69
2019-03-13T00:22:33.887Z,85.17
2019-03-13T00:23:33.781Z,84.75
2019-03-13T00:24:33.870Z,85.38
2019-03-13T00:25:33.771Z,84.86
2019-03-13T00:26:33.818Z,85.79
2019-03-13T00:27:33.734Z,85.79
2019-03-13T00:28:33.833Z,85.79
2019-03-13T00:29:33.735Z,85.69
2019-03-13T00:30:33.780Z,85.65
2019-03-13T00:31:33.717Z,85.86
2019-03-13T00:32:33.793Z,85.75
2019-03-13T00:33:33.683Z,85.55
2019-03-13T00:34:33.782Z,85.75
2019-03-13T00:35:33.717Z,85.65
2019-03-13T00:36:33.729Z,85.75
2019-03-13T00:37:33.621Z,85.65
2019-03-13T00:38:33.706Z,85.06
2019-03-13T00:39:33.596Z,84.51
2019-03-13T00:40:33.642Z,85.34
2019-03-13T00:41:33.579Z,84.72
2019-03-13T00:42:33.653Z,84.09
2019-03-13T00:43:33.573Z,83.68
2019-03-13T00:44:33.652Z,83.68
2019-03-13T00:45:33.658Z,83.26
2019-03-13T00:46:33.549Z,82.75
2019-03-13T00:47:33.512Z,83.47
2019-03-13T00:48:33.583Z,83.47
2019-03-13T00:49:33.488Z,83.37
2019-03-13T00:50:33.608Z,83.26
2019-03-13T00:51:36.726Z,82.54
2019-03-13T00:52:33.499Z,82.75
2019-03-13T00:53:33.450Z,82.65
2019-03-13T00:54:33.521Z,82.75
2019-03-13T00:55:33.442Z,82.44
2019-03-13T00:56:33.545Z,82.75
2019-03-13T00:57:33.410Z,82.95
2019-03-13T00:58:33.423Z,83.06
2019-03-13T00:59:33.382Z,83.06
2019-03-13T01:00:33.498Z,82.95
2019-03-13T01:01:33.355Z,82.86
2019-03-13T01:02:33.478Z,82.54
2019-03-13T01:03:33.337Z,82.75
2019-03-13T01:04:33.377Z,82.65
2019-03-13T01:05:33.306Z,82.75
2019-03-13T01:06:33.412Z,82.75
2019-03-13T01:07:33.375Z,82.75
2019-03-13T01:08:33.391Z,82.95
2019-03-13T01:09:33.280Z,82.75
2019-03-13T01:10:33.304Z,82.44
2019-03-13T01:11:33.284Z,82.86
2019-03-13T01:12:33.330Z,82.75
2019-03-13T01:13:33.230Z,82.65
2019-03-13T01:14:33.357Z,82.34
2019-03-13T01:15:33.234Z,82.95
2019-03-13T01:16:33.291Z,82.75
2019-03-13T01:17:33.176Z,83.06
2019-03-13T01:18:33.261Z,82.86
2019-03-13T01:19:33.172Z,83.26
2019-03-13T01:20:33.277Z,82.95
2019-03-13T01:21:33.159Z,83.16
2019-03-13T01:22:33.217Z,82.95
2019-03-13T01:23:33.112Z,82.75
2019-03-13T01:24:33.255Z,82.23
2019-03-13T01:25:33.093Z,82.03
2019-03-13T01:26:33.141Z,82.23
2019-03-13T01:27:33.094Z,82.23
2019-03-13T01:28:33.139Z,82.23
2019-03-13T01:29:33.051Z,82.44
2019-03-13T01:30:33.154Z,82.44
2019-03-13T01:31:33.072Z,82.34
2019-03-13T01:32:33.108Z,82.44
2019-03-13T01:33:33.001Z,82.23
2019-03-13T01:34:33.077Z,82.34
2019-03-13T01:35:33.001Z,82.23
2019-03-13T01:36:33.125Z,82.34
2019-03-13T01:37:32.990Z,82.44
2019-03-13T01:38:33.001Z,82.13
2019-03-13T01:39:32.941Z,82.13
2019-03-13T01:40:33.030Z,82.65
2019-03-13T01:41:32.921Z,82.34
2019-03-13T01:42:33.036Z,82.65
2019-03-13T01:43:32.924Z,82.44
2019-03-13T01:44:32.940Z,82.86
2019-03-13T01:45:32.884Z,82.75
2019-03-13T01:46:32.950Z,82.75
2019-03-13T01:47:32.883Z,82.95
2019-03-13T01:48:32.967Z,82.75
2019-03-13T01:49:32.879Z,82.23
2019-03-13T01:50:32.907Z,82.54
2019-03-13T01:51:32.812Z,82.23
2019-03-13T01:52:32.908Z,82.34
2019-03-13T01:53:32.807Z,82.86
2019-03-13T01:54:32.903Z,82.75
2019-03-13T01:55:32.766Z,82.44
2019-03-13T01:56:32.806Z,82.34
2019-03-13T01:57:32.778Z,82.81
2019-03-13T01:58:32.844Z,83.47
2019-03-13T01:59:32.719Z,82.71
2019-03-13T02:00:32.842Z,82.09
2019-03-13T02:01:32.700Z,82.29
2019-03-13T02:02:32.783Z,82.44
2019-03-13T02:03:32.707Z,82.29
2019-03-13T02:04:32.790Z,82.29
2019-03-13T02:05:32.658Z,82.60
2019-03-13T02:06:32.673Z,82.81
2019-03-13T02:07:32.661Z,82.50
2019-03-13T02:08:32.685Z,82.71
2019-03-13T02:09:32.607Z,82.71
2019-03-13T02:10:32.712Z,82.92
2019-03-13T02:11:32.580Z,83.16
2019-03-13T02:12:32.611Z,82.29
2019-03-13T02:13:32.598Z,82.40
2019-03-13T02:14:32.644Z,82.50
2019-03-13T02:15:32.554Z,81.88
2019-03-13T02:16:32.640Z,82.19
2019-03-13T02:17:32.523Z,82.40
2019-03-13T02:18:32.587Z,82.19
2019-03-13T02:19:32.523Z,82.19
2019-03-13T02:20:32.580Z,82.19
2019-03-13T02:21:32.478Z,82.50
2019-03-13T02:22:32.590Z,82.60
2019-03-13T02:23:32.482Z,82.54
2019-03-13T02:24:32.507Z,82.23
2019-03-13T02:25:32.437Z,82.54
2019-03-13T02:26:32.501Z,82.75
2019-03-13T02:27:32.430Z,82.95
2019-03-13T02:28:32.548Z,82.86
2019-03-13T02:29:32.411Z,82.65
2019-03-13T02:30:32.432Z,82.75
2019-03-13T02:31:32.380Z,82.65
2019-03-13T02:32:32.509Z,82.65
2019-03-13T02:33:32.380Z,82.34
2019-03-13T02:34:32.526Z,81.92
2019-03-13T02:35:32.377Z,82.09
2019-03-13T02:36:32.369Z,82.03
2019-03-13T02:37:32.313Z,82.29
2019-03-13T02:38:32.390Z,81.88
2019-03-13T02:39:32.319Z,82.23
2019-03-13T02:40:32.298Z,82.60
2019-03-13T02:41:32.280Z,82.09
2019-03-13T02:42:32.310Z,81.78
2019-03-13T02:43:32.255Z,81.68
2019-03-13T02:44:32.363Z,81.68
2019-03-13T02:45:32.259Z,81.37
2019-03-13T02:46:32.239Z,81.57
2019-03-13T02:47:32.202Z,81.68
2019-03-13T02:48:32.280Z,81.57
2019-03-13T02:49:32.194Z,81.68
2019-03-13T02:50:32.273Z,81.37
2019-03-13T02:51:32.155Z,81.78
2019-03-13T02:52:32.173Z,81.99
2019-03-13T02:53:32.129Z,81.99
2019-03-13T02:54:32.212Z,81.78
2019-03-13T02:55:32.119Z,81.88
2019-03-13T02:56:32.215Z,81.78
2019-03-13T02:57:32.110Z,81.23
2019-03-13T02:58:32.132Z,81.23
2019-03-13T02:59:32.071Z,81.57
2019-03-13T03:00:32.163Z,81.78
2019-03-13T03:01:32.045Z,81.78
2019-03-13T03:02:32.141Z,81.47
2019-03-13T03:03:32.052Z,81.05
2019-03-13T03:04:32.102Z,81.26
2019-03-13T03:05:32.015Z,80.85
2019-03-13T03:06:32.072Z,81.23
2019-03-13T03:07:31.980Z,80.50
2019-03-13T03:08:32.132Z,80.74
2019-03-13T03:09:32.004Z,80.40
2019-03-13T03:10:31.992Z,80.64
2019-03-13T03:11:31.959Z,80.19
2019-03-13T03:12:32.033Z,80.40
2019-03-13T03:13:31.914Z,79.88
2019-03-13T03:14:32.033Z,80.08
2019-03-13T03:15:31.912Z,80.08
2019-03-13T03:16:31.958Z,79.98
2019-03-13T03:17:31.882Z,79.57
2019-03-13T03:18:31.957Z,79.36
2019-03-13T03:19:31.906Z,78.95
2019-03-13T03:20:31.904Z,78.64
2019-03-13T03:21:31.818Z,78.95
2019-03-13T03:22:31.875Z,79.26
2019-03-13T03:23:31.803Z,79.36
2019-03-13T03:24:31.881Z,78.64
2019-03-13T03:25:31.799Z,79.26
2019-03-13T03:26:31.841Z,79.12
2019-03-13T03:27:31.750Z,78.12
2019-03-13T03:28:31.816Z,78.19
2019-03-13T03:29:31.743Z,78.08
2019-03-13T03:30:31.932Z,78.29
2019-03-13T03:31:31.722Z,78.08
2019-03-13T03:32:31.743Z,78.39
2019-03-13T03:33:31.737Z,79.22
2019-03-13T03:34:31.748Z,78.81
2019-03-13T03:35:31.699Z,78.02
2019-03-13T03:36:31.758Z,78.02
2019-03-13T03:37:31.650Z,78.91
2019-03-13T03:38:31.728Z,78.50
2019-03-13T03:39:31.626Z,78.02
2019-03-13T03:40:31.723Z,77.67
2019-03-13T03:41:31.639Z,77.36
2019-03-13T03:42:31.693Z,77.98
2019-03-13T03:43:39.949Z,78.08
2019-03-13T03:44:32.570Z,78.29
2019-03-13T03:45:31.647Z,78.43
2019-03-13T03:46:31.553Z,78.43
2019-03-13T03:47:31.636Z,77.67
2019-03-13T03:48:31.629Z,78.39
2019-03-13T03:49:31.538Z,78.29
2019-03-13T03:50:31.538Z,78.08
2019-03-13T03:51:31.587Z,78.50
2019-03-13T03:52:31.487Z,78.29
2019-03-13T03:53:31.568Z,78.19
2019-03-13T03:54:31.474Z,78.08
2019-03-13T03:55:31.477Z,77.98
2019-03-13T03:56:31.527Z,79.02
2019-03-13T03:57:31.509Z,78.08
2019-03-13T03:58:31.424Z,77.98
2019-03-13T04:00:32.513Z,78.50
2019-03-13T04:01:33.517Z,78.70
2019-03-13T04:02:31.367Z,77.98
2019-03-13T04:04:32.472Z,78.19
2019-03-13T04:05:31.529Z,78.08
2019-03-13T04:06:31.348Z,79.08
2019-03-13T04:08:32.425Z,78.19
2019-03-13T04:09:31.394Z,78.15
2019-03-13T04:10:31.277Z,78.36
2019-03-13T04:11:47.811Z,78.39
2019-03-13T04:12:31.252Z,78.56
2019-03-13T04:13:31.327Z,78.15
2019-03-13T04:14:31.236Z,78.25
2019-03-13T04:16:31.250Z,78.25
2019-03-13T04:17:33.348Z,78.25
2019-03-13T04:18:31.198Z,78.25
2019-03-13T04:19:31.239Z,78.05
2019-03-13T04:20:31.187Z,77.94
2019-03-13T04:22:32.313Z,77.74
2019-03-13T04:23:31.271Z,77.94
2019-03-13T04:24:31.129Z,77.74
2019-03-13T04:25:31.175Z,77.64
2019-03-13T04:26:31.105Z,78.25
2019-03-13T04:27:31.225Z,77.74
2019-03-13T04:28:31.117Z,77.94
2019-03-13T04:29:31.141Z,78.36
2019-03-13T04:30:31.070Z,78.05
2019-03-13T04:31:31.134Z,78.46
2019-03-13T04:32:31.074Z,77.94
2019-03-13T04:33:31.128Z,77.64
2019-03-13T04:34:31.027Z,77.33
2019-03-13T04:35:31.054Z,77.22
2019-03-13T04:36:30.997Z,76.91
2019-03-13T04:37:31.094Z,77.43
2019-03-13T04:38:30.983Z,77.22
2019-03-13T04:39:31.066Z,76.70
2019-03-13T04:40:30.951Z,76.70
2019-03-13T04:41:30.990Z,76.56
2019-03-13T04:42:30.963Z,76.60
2019-03-13T04:44:32.030Z,77.12
2019-03-13T04:45:31.007Z,76.81
2019-03-13T04:46:30.890Z,76.91
2019-03-13T04:47:30.923Z,77.01
2019-03-13T04:48:31.000Z,77.33
2019-03-13T04:49:30.936Z,76.91
2019-03-13T04:50:30.840Z,76.91
2019-03-13T04:51:30.961Z,77.43
2019-03-13T04:52:30.824Z,77.12
2019-03-13T04:53:30.892Z,76.91
2019-03-13T04:54:30.793Z,76.18
2019-03-13T04:55:30.883Z,76.29
2019-03-13T04:56:30.785Z,75.84
2019-03-13T04:57:30.795Z,75.46
2019-03-13T04:58:30.779Z,76.39
2019-03-13T05:00:31.856Z,75.78
2019-03-13T05:01:30.952Z,76.18
2019-03-13T05:02:30.835Z,75.98
2019-03-13T05:03:30.918Z,76.50
2019-03-13T05:04:30.820Z,76.56
2019-03-13T05:05:30.873Z,75.53
2019-03-13T05:06:30.661Z,75.78
2019-03-13T05:07:30.755Z,75.74
2019-03-13T05:08:30.663Z,76.81
2019-03-13T05:09:30.661Z,76.29
2019-03-13T05:10:30.628Z,76.39
2019-03-13T05:11:30.694Z,77.43
2019-03-13T05:12:30.604Z,77.33
2019-03-13T05:13:30.749Z,76.70
2019-03-13T05:14:32.666Z,76.50
2019-03-13T05:15:30.599Z,76.60
2019-03-13T05:16:30.550Z,76.70
2019-03-13T05:17:30.639Z,76.50
2019-03-13T05:18:30.555Z,76.29
2019-03-13T05:19:30.635Z,75.78
2019-03-13T05:20:30.504Z,75.53
2019-03-13T05:21:30.549Z,75.32
2019-03-13T05:22:30.491Z,75.84
2019-03-13T05:23:30.554Z,75.88
2019-03-13T05:24:30.514Z,75.67
2019-03-13T05:25:30.572Z,75.26
2019-03-13T05:26:30.444Z,75.12
2019-03-13T05:27:30.491Z,75.46
2019-03-13T05:28:30.430Z,75.36
2019-03-13T05:29:30.523Z,75.78
2019-03-13T05:30:30.410Z,75.57
2019-03-13T05:31:30.508Z,74.74
2019-03-13T05:32:30.370Z,75.12
2019-03-13T05:33:30.420Z,74.95
2019-03-13T05:34:30.388Z,75.53
2019-03-13T05:35:30.439Z,75.78
2019-03-13T05:36:30.339Z,74.71
2019-03-13T05:37:30.361Z,74.91
2019-03-13T05:38:30.320Z,74.71
2019-03-13T05:39:30.402Z,75.32
2019-03-13T05:40:30.310Z,75.57
2019-03-13T05:41:30.396Z,74.81
2019-03-13T05:42:30.270Z,75.15
2019-03-13T05:43:30.290Z,74.60
2019-03-13T05:44:30.276Z,75.74
2019-03-13T05:45:30.302Z,75.01
2019-03-13T05:46:30.230Z,75.32
2019-03-13T05:47:30.314Z,75.78
2019-03-13T05:48:30.210Z,75.98
2019-03-13T05:49:30.274Z,75.88
2019-03-13T05:50:31.547Z,75.36
2019-03-13T05:51:30.262Z,75.57
2019-03-13T05:52:30.153Z,75.32
2019-03-13T05:53:30.276Z,75.53
2019-03-13T05:54:30.125Z,75.53
2019-03-13T05:55:31.222Z,75.26
2019-03-13T05:56:30.111Z,74.50
2019-03-13T05:57:30.180Z,75.01
2019-03-13T05:58:30.142Z,74.60
2019-03-13T05:59:30.196Z,75.53
2019-03-13T06:00:30.132Z,75.01
2019-03-13T06:01:30.142Z,74.60
2019-03-13T06:02:30.043Z,75.43
2019-03-13T06:03:30.115Z,74.71
2019-03-13T06:04:30.027Z,75.12
2019-03-13T06:05:30.076Z,75.43
2019-03-13T06:06:30.039Z,75.09
2019-03-13T06:07:30.044Z,74.71
2019-03-13T06:08:29.985Z,75.95
2019-03-13T06:09:30.060Z,75.74
2019-03-13T06:10:30.002Z,75.95
2019-03-13T06:11:30.003Z,75.22
2019-03-13T06:12:29.966Z,75.22
2019-03-13T06:13:30.018Z,75.53
2019-03-13T06:14:29.918Z,75.81
2019-03-13T06:15:30.027Z,75.84
2019-03-13T06:16:29.963Z,75.22
2019-03-13T06:17:29.936Z,75.43
2019-03-13T06:18:29.864Z,75.84
2019-03-13T06:19:29.928Z,75.43
2019-03-13T06:20:29.852Z,75.74
2019-03-13T06:21:29.967Z,75.12
2019-03-13T06:22:29.832Z,75.84
2019-03-13T06:23:29.871Z,75.32
2019-03-13T06:24:29.804Z,75.74
2019-03-13T06:25:29.876Z,76.05
2019-03-13T06:26:29.819Z,74.50
2019-03-13T06:27:29.900Z,74.15
2019-03-13T06:28:29.782Z,74.88
2019-03-13T06:29:31.794Z,74.77
2019-03-13T06:30:29.768Z,74.36
2019-03-13T06:31:29.837Z,75.19
2019-03-13T06:32:29.710Z,74.57
2019-03-13T06:33:29.829Z,74.26
2019-03-13T06:34:29.690Z,74.26
2019-03-13T06:35:29.740Z,74.46
2019-03-13T06:36:29.710Z,74.46
2019-03-13T06:38:30.789Z,74.26
2019-03-13T06:40:30.782Z,74.98
2019-03-13T06:41:29.703Z,74.15
2019-03-13T06:42:29.608Z,74.67
2019-03-13T06:43:29.684Z,74.15
2019-03-13T06:44:29.578Z,74.15
2019-03-13T06:45:29.708Z,74.15
2019-03-13T06:46:29.558Z,74.15
2019-03-13T06:47:29.637Z,74.26
2019-03-13T06:49:30.674Z,74.05
2019-03-13T06:50:29.632Z,74.36
2019-03-13T06:51:29.500Z,74.15
2019-03-13T06:52:31.643Z,74.77
2019-03-13T06:53:29.481Z,74.67
2019-03-13T06:54:29.558Z,75.09
2019-03-13T06:55:29.470Z,74.57
2019-03-13T06:56:29.575Z,75.09
2019-03-13T06:57:29.462Z,75.49
2019-03-13T06:58:29.480Z,77.67
2019-03-13T06:59:29.415Z,79.01
2019-03-13T07:00:31.446Z,77.98
2019-03-13T07:01:29.395Z,78.28
2019-03-13T07:02:30.456Z,78.42
2019-03-13T07:03:29.365Z,77.81
2019-03-13T07:05:30.485Z,77.91
2019-03-13T07:07:30.483Z,78.74
2019-03-13T07:08:29.346Z,77.91
2019-03-13T07:09:29.310Z,78.22
2019-03-13T07:10:29.358Z,77.91
2019-03-13T07:11:29.288Z,78.01
2019-03-13T07:12:29.421Z,78.59
2019-03-13T07:13:29.262Z,77.87
2019-03-13T07:14:29.301Z,79.05
2019-03-13T07:15:29.243Z,79.05
2019-03-13T07:16:29.301Z,78.84
2019-03-13T07:17:29.215Z,78.94
2019-03-13T07:18:29.362Z,78.22
2019-03-13T07:19:29.221Z,79.15
2019-03-13T07:21:30.322Z,79.05
2019-03-13T07:22:29.237Z,79.01
2019-03-13T07:23:29.186Z,78.74
2019-03-13T07:24:29.252Z,79.36
2019-03-13T07:25:29.130Z,80.70
2019-03-13T07:26:29.169Z,80.29
2019-03-13T07:27:29.102Z,81.01
2019-03-13T07:28:29.214Z,81.11
2019-03-13T07:29:29.105Z,82.25
2019-03-13T07:31:30.201Z,81.46
2019-03-13T07:32:29.102Z,81.67
2019-03-13T07:33:29.072Z,81.05
2019-03-13T07:34:29.115Z,81.05
2019-03-13T07:35:29.020Z,81.98
2019-03-13T07:36:29.133Z,81.98
2019-03-13T07:37:29.005Z,81.56
2019-03-13T07:38:30.094Z,81.98
2019-03-13T07:39:28.979Z,81.98
2019-03-13T07:40:29.059Z,82.76
2019-03-13T07:41:28.953Z,82.80
2019-03-13T07:42:29.093Z,81.98
2019-03-13T07:43:28.989Z,81.87
2019-03-13T07:44:29.016Z,81.94
2019-03-13T07:45:28.917Z,81.01
2019-03-13T07:46:29.023Z,80.39
2019-03-13T07:47:29.428Z,80.70
2019-03-13T07:48:28.899Z,81.52
2019-03-13T07:49:28.899Z,80.90
2019-03-13T07:50:28.914Z,80.08
2019-03-13T07:51:28.859Z,79.97
2019-03-13T07:52:28.937Z,79.77
2019-03-13T07:53:28.817Z,79.94
2019-03-13T07:54:28.880Z,79.22
2019-03-13T07:55:28.813Z,79.73
2019-03-13T07:56:28.853Z,80.04
2019-03-13T07:57:28.778Z,80.35
2019-03-13T07:58:28.879Z,81.32
2019-03-13T07:59:28.782Z,81.73
2019-03-13T08:00:28.781Z,82.15
2019-03-13T08:01:28.762Z,81.59
2019-03-13T08:02:28.805Z,81.42
2019-03-13T08:03:28.721Z,80.08
2019-03-13T08:04:28.843Z,81.18
2019-03-13T08:05:28.753Z,79.73
2019-03-13T08:06:28.836Z,79.63
2019-03-13T08:07:28.668Z,80.46
2019-03-13T08:08:28.747Z,80.46
2019-03-13T08:09:28.643Z,80.25
2019-03-13T08:10:28.779Z,80.15
2019-03-13T08:11:28.621Z,79.52
2019-03-13T08:12:28.666Z,80.35
2019-03-13T08:13:28.601Z,80.46
2019-03-13T08:14:28.681Z,80.04
2019-03-13T08:15:28.583Z,79.94
2019-03-13T08:16:28.731Z,79.38
2019-03-13T08:17:28.558Z,79.83
2019-03-13T08:18:28.604Z,79.69
2019-03-13T08:19:28.535Z,78.56
2019-03-13T08:20:28.640Z,79.38
2019-03-13T08:21:28.512Z,78.25
2019-03-13T08:22:28.525Z,78.94
2019-03-13T08:23:28.537Z,79.25
2019-03-13T08:24:28.539Z,78.21
2019-03-13T08:25:28.504Z,77.70
2019-03-13T08:26:28.592Z,77.80
2019-03-13T08:27:28.448Z,77.70
2019-03-13T08:28:28.580Z,77.45
2019-03-13T08:29:28.434Z,77.66
2019-03-13T08:30:28.583Z,76.84
2019-03-13T08:31:28.443Z,77.39
2019-03-13T08:32:28.493Z,77.91
2019-03-13T08:33:28.394Z,78.11
2019-03-13T08:34:28.407Z,78.21
2019-03-13T08:35:28.362Z,77.70
2019-03-13T08:36:28.468Z,78.25
2019-03-13T08:37:28.341Z,77.94
2019-03-13T08:38:28.431Z,78.97
2019-03-13T08:39:28.324Z,79.04
2019-03-13T08:40:28.346Z,78.66
2019-03-13T08:41:28.335Z,79.08
2019-03-13T08:42:28.390Z,79.49
2019-03-13T08:43:28.312Z,78.87
2019-03-13T08:44:28.474Z,78.59
2019-03-13T08:45:28.284Z,78.56
2019-03-13T08:46:28.413Z,79.80
2019-03-13T08:47:28.246Z,79.83
2019-03-13T08:48:28.326Z,78.77
2019-03-13T08:49:28.208Z,79.38
2019-03-13T08:50:28.314Z,79.11
2019-03-13T08:51:28.217Z,78.77
2019-03-13T08:52:28.225Z,79.73
2019-03-13T08:53:28.165Z,79.11
2019-03-13T08:54:28.243Z,79.28
2019-03-13T08:55:28.141Z,79.08
2019-03-13T08:56:28.286Z,79.08
2019-03-13T08:57:28.126Z,78.87
2019-03-13T08:58:28.158Z,79.08
2019-03-13T08:59:28.098Z,79.28
2019-03-13T09:00:28.171Z,78.77
2019-03-13T09:01:28.116Z,78.77
2019-03-13T09:02:28.325Z,78.87
2019-03-13T09:03:28.074Z,78.66
2019-03-13T09:04:28.112Z,78.45
2019-03-13T09:05:28.038Z,78.14
2019-03-13T09:06:28.115Z,77.94
2019-03-13T09:07:28.046Z,78.66
2019-03-13T09:08:28.040Z,78.25
2019-03-13T09:09:28.003Z,77.63
2019-03-13T09:10:28.050Z,77.80
2019-03-13T09:11:27.981Z,77.94
2019-03-13T09:12:28.093Z,78.14
2019-03-13T09:13:27.974Z,78.77
2019-03-13T09:14:27.963Z,78.35
2019-03-13T09:15:27.929Z,79.18
2019-03-13T09:16:27.980Z,77.94
2019-03-13T09:17:27.928Z,78.66
2019-03-13T09:18:27.989Z,77.84
2019-03-13T09:19:27.885Z,78.05
2019-03-13T09:20:27.905Z,78.77
2019-03-13T09:21:27.851Z,78.35
2019-03-13T09:22:27.954Z,78.21
2019-03-13T09:23:27.860Z,78.05
2019-03-13T09:24:27.935Z,78.83
2019-03-13T09:25:27.958Z,78.77
2019-03-13T09:26:27.843Z,78.35
2019-03-13T09:27:27.832Z,78.25
2019-03-13T09:28:27.867Z,79.83
2019-03-13T09:29:28.102Z,79.18
2019-03-13T09:30:27.875Z,80.00
2019-03-13T09:31:27.762Z,80.35
2019-03-13T09:32:27.785Z,80.35
2019-03-13T09:33:27.832Z,81.70
2019-03-13T09:34:27.799Z,81.70
2019-03-13T09:35:27.706Z,82.21
2019-03-13T09:36:27.824Z,82.52
2019-03-13T09:37:27.681Z,82.62
2019-03-13T09:38:27.759Z,82.93
2019-03-13T09:39:27.712Z,82.83
2019-03-13T09:40:27.767Z,83.04
2019-03-13T09:41:27.639Z,83.86
2019-03-13T09:42:27.647Z,83.55
2019-03-13T09:43:27.612Z,83.45
2019-03-13T09:44:27.723Z,83.34
2019-03-13T09:45:27.591Z,83.86
2019-03-13T09:46:27.676Z,83.34
2019-03-13T09:47:27.565Z,83.34
2019-03-13T09:48:27.632Z,82.93
2019-03-13T09:49:27.594Z,83.76
2019-03-13T09:50:27.600Z,84.11
2019-03-13T09:51:27.526Z,83.55
2019-03-13T09:52:27.623Z,83.80
2019-03-13T09:53:27.644Z,83.65
2019-03-13T09:54:27.564Z,83.86
2019-03-13T09:55:27.486Z,83.59
2019-03-13T09:56:27.540Z,83.76
2019-03-13T09:57:27.507Z,83.76
2019-03-13T09:58:27.556Z,83.14
2019-03-13T09:59:27.473Z,83.45
2019-03-13T10:00:27.468Z,83.55
2019-03-13T10:01:27.426Z,83.97
2019-03-13T10:02:27.480Z,84.38
2019-03-13T10:03:27.398Z,84.48
2019-03-13T10:04:27.526Z,83.93
2019-03-13T10:05:27.372Z,83.51
2019-03-13T10:06:27.404Z,83.45
2019-03-13T10:07:27.350Z,83.25
2019-03-13T10:08:27.423Z,83.72
2019-03-13T10:09:27.358Z,84.28
2019-03-13T10:10:27.429Z,84.86
2019-03-13T10:11:27.306Z,83.76
2019-03-13T10:12:27.344Z,83.97
2019-03-13T10:13:27.286Z,84.48
2019-03-13T10:14:27.432Z,84.69
2019-03-13T10:15:27.258Z,85.55
2019-03-13T10:16:27.371Z,85.55
2019-03-13T10:17:27.238Z,87.00
2019-03-13T10:18:27.292Z,86.07
2019-03-13T10:19:27.221Z,86.38
2019-03-13T10:20:27.339Z,87.07
2019-03-13T10:21:27.205Z,86.79
2019-03-13T10:22:27.209Z,87.21
2019-03-13T10:23:27.177Z,87.93
2019-03-13T10:24:27.233Z,88.34
2019-03-13T10:25:27.236Z,87.00
2019-03-13T10:26:27.237Z,87.15
2019-03-13T10:27:27.158Z,87.76
2019-03-13T10:28:27.151Z,87.66
2019-03-13T10:29:27.125Z,87.97
2019-03-13T10:30:27.217Z,88.80
2019-03-13T10:31:27.106Z,89.32
2019-03-13T10:32:27.218Z,89.69
2019-03-13T10:33:27.079Z,88.70
2019-03-13T10:34:27.097Z,88.28
2019-03-13T10:35:27.076Z,89.11
2019-03-13T10:36:27.167Z,89.32
2019-03-13T10:37:27.023Z,89.52
2019-03-13T10:38:27.131Z,89.79
2019-03-13T10:39:27.020Z,88.76
2019-03-13T10:40:27.077Z,88.86
2019-03-13T10:41:27.022Z,89.17
2019-03-13T10:42:27.151Z,89.17
2019-03-13T10:43:27.008Z,89.86
2019-03-13T10:44:27.060Z,89.44
2019-03-13T10:45:26.941Z,88.20
2019-03-13T10:46:27.020Z,89.19
2019-03-13T10:47:26.919Z,88.98
2019-03-13T10:48:26.983Z,89.23
2019-03-13T10:49:26.888Z,88.51
2019-03-13T10:50:27.001Z,87.99
2019-03-13T10:51:26.891Z,89.44
2019-03-13T10:52:26.964Z,88.41
2019-03-13T10:53:26.847Z,87.27
2019-03-13T10:54:26.930Z,87.68
2019-03-13T10:55:26.874Z,87.27
2019-03-13T10:56:26.934Z,87.17
2019-03-13T10:57:26.826Z,87.89
2019-03-13T10:58:26.855Z,89.13
2019-03-13T10:59:26.785Z,88.45
2019-03-13T11:00:26.870Z,88.92
2019-03-13T11:01:26.760Z,88.24
2019-03-13T11:02:26.827Z,88.04
2019-03-13T11:03:26.739Z,88.04
2019-03-13T11:04:26.791Z,88.34
2019-03-13T11:05:26.721Z,88.92
2019-03-13T11:06:26.887Z,87.73
2019-03-13T11:07:28.789Z,86.96
2019-03-13T11:08:26.714Z,87.07
2019-03-13T11:09:26.677Z,87.68
2019-03-13T11:10:26.734Z,87.44
2019-03-13T11:11:26.647Z,87.02
2019-03-13T11:12:26.782Z,85.58
2019-03-13T11:13:26.623Z,84.44
2019-03-13T11:14:26.689Z,85.47
2019-03-13T11:15:26.602Z,85.68
2019-03-13T11:16:26.661Z,85.17
2019-03-13T11:17:26.635Z,85.54
2019-03-13T11:18:26.681Z,83.58
2019-03-13T11:19:26.564Z,84.41
2019-03-13T11:20:26.614Z,83.58
2019-03-13T11:21:26.561Z,84.41
2019-03-13T11:22:26.649Z,85.02
2019-03-13T11:23:26.520Z,85.13
2019-03-13T11:24:26.631Z,84.72
2019-03-13T11:25:26.511Z,85.33
2019-03-13T11:26:26.574Z,85.54
2019-03-13T11:27:26.495Z,83.17
2019-03-13T11:28:26.616Z,83.68
2019-03-13T11:29:26.470Z,83.48
2019-03-13T11:30:26.558Z,83.44
2019-03-13T11:31:26.430Z,84.41
2019-03-13T11:32:26.467Z,84.20
2019-03-13T11:33:26.465Z,83.54
2019-03-13T11:34:26.526Z,83.23
2019-03-13T11:35:26.387Z,83.48
2019-03-13T11:36:26.504Z,83.75
2019-03-13T11:37:26.375Z,84.36
2019-03-13T11:38:26.441Z,83.64
2019-03-13T11:39:26.346Z,83.33
2019-03-13T11:40:26.439Z,82.34
2019-03-13T11:41:26.330Z,83.33
2019-03-13T11:42:26.340Z,83.13
2019-03-13T11:43:26.426Z,83.33
2019-03-13T11:44:26.348Z,83.64
2019-03-13T11:45:26.293Z,82.61
2019-03-13T11:46:26.398Z,83.13
2019-03-13T11:47:26.260Z,83.44
2019-03-13T11:48:26.316Z,83.54
2019-03-13T11:49:26.230Z,83.54
2019-03-13T11:50:26.292Z,83.33
2019-03-13T11:51:26.246Z,82.20
2019-03-13T11:52:26.319Z,82.71
2019-03-13T11:53:26.218Z,83.64
2019-03-13T11:54:26.257Z,83.23
2019-03-13T11:55:26.163Z,83.13
2019-03-13T11:56:26.236Z,82.61
2019-03-13T11:57:26.137Z,82.40
2019-03-13T11:58:26.251Z,83.54
2019-03-13T11:59:26.140Z,82.20
2019-03-13T12:00:26.160Z,82.40
2019-03-13T12:01:26.104Z,81.99
2019-03-13T12:02:26.171Z,82.61
2019-03-13T12:03:26.076Z,82.40
2019-03-13T12:04:26.235Z,82.37
2019-03-13T12:05:26.057Z,82.89
2019-03-13T12:06:26.116Z,82.26
2019-03-13T12:07:26.035Z,82.37
2019-03-13T12:08:26.109Z,82.57
2019-03-13T12:09:26.057Z,81.23
2019-03-13T12:10:26.130Z,81.03
2019-03-13T12:11:27.934Z,81.23
2019-03-13T12:12:26.541Z,80.00
2019-03-13T12:13:25.968Z,79.55
2019-03-13T12:14:26.085Z,79.55
2019-03-13T12:15:25.960Z,79.65
2019-03-13T12:16:26.058Z,79.34
2019-03-13T12:17:25.927Z,79.55
2019-03-13T12:18:25.969Z,78.83
2019-03-13T12:19:25.906Z,80.16
2019-03-13T12:20:26.014Z,81.20
2019-03-13T12:21:25.882Z,79.90
2019-03-13T12:22:25.895Z,81.03
2019-03-13T12:23:25.855Z,80.82
2019-03-13T12:24:25.913Z,80.82
2019-03-13T12:25:25.897Z,80.62
2019-03-13T12:26:25.927Z,81.23
2019-03-13T12:27:25.815Z,82.57
2019-03-13T12:28:25.848Z,83.75
2019-03-13T12:29:25.828Z,83.03
2019-03-13T12:30:25.923Z,83.64
2019-03-13T12:31:25.807Z,85.23
2019-03-13T12:32:25.863Z,85.44
2019-03-13T12:33:25.757Z,85.44
2019-03-13T12:34:25.838Z,86.68
2019-03-13T12:35:25.766Z,87.13
2019-03-13T12:36:25.791Z,87.34
2019-03-13T12:37:25.756Z,88.16
2019-03-13T12:38:25.802Z,89.19
2019-03-13T12:39:25.699Z,89.03
2019-03-13T12:40:25.772Z,88.71
2019-03-13T12:41:25.668Z,87.89
2019-03-13T12:42:25.821Z,89.86
2019-03-13T12:43:25.639Z,89.23
2019-03-13T12:44:25.743Z,88.41
2019-03-13T12:45:25.646Z,88.92
2019-03-13T12:46:25.656Z,89.34
2019-03-13T12:47:25.599Z,89.13
2019-03-13T12:48:25.677Z,89.34
2019-03-13T12:49:25.569Z,89.34
2019-03-13T12:50:25.712Z,89.65
2019-03-13T12:51:25.550Z,89.54
2019-03-13T12:52:25.594Z,89.34
2019-03-13T12:53:25.532Z,90.06
2019-03-13T12:54:25.618Z,90.58
2019-03-13T12:55:25.537Z,89.75
2019-03-13T12:56:25.658Z,89.75
2019-03-13T12:57:25.490Z,90.10
2019-03-13T12:58:25.531Z,90.47
2019-03-13T12:59:25.470Z,89.86
2019-03-13T13:00:25.543Z,90.20
2019-03-13T13:01:25.481Z,90.10
2019-03-13T13:02:25.563Z,90.72
2019-03-13T13:03:25.433Z,91.44
2019-03-13T13:04:25.535Z,91.24
2019-03-13T13:05:25.403Z,91.75
2019-03-13T13:06:25.485Z,92.38